createdAt,value
2019-05-25T00:00:30.707Z,64.60
2019-05-25T00:04:35.554Z,63.86
2019-05-25T00:08:40.445Z,63.21
2019-05-25T00:12:45.348Z,62.87
2019-05-25T00:16:51.209Z,63.17
2019-05-25T00:20:56.103Z,63.46
2019-05-25T00:25:01.000Z,63.95
2019-05-25T00:29:05.892Z,65.30
2019-05-25T00:33:10.788Z,66.35
2019-05-25T00:37:15.692Z,66.69
2019-05-25T00:41:20.662Z,67.12
2019-05-25T00:45:25.556Z,67.69
2019-05-25T00:49:30.456Z,67.76
2019-05-25T00:53:35.356Z,67.66
2019-05-25T00:57:40.254Z,67.25
2019-05-25T01:01:45.150Z,67.15
2019-05-25T01:05:50.046Z,66.83
2019-05-25T01:09:54.939Z,66.83
2019-05-25T01:13:59.836Z,66.82
2019-05-25T01:18:04.872Z,67.54
2019-05-25T01:22:09.776Z,68.26
2019-05-25T01:26:14.670Z,69.18
2019-05-25T01:30:19.946Z,69.20
2019-05-25T01:34:24.829Z,69.38
2019-05-25T01:38:29.724Z,69.74
2019-05-25T01:42:34.795Z,70.08
2019-05-25T01:46:40.762Z,70.44
2019-05-25T01:50:45.669Z,70.97
2019-05-25T01:54:59.435Z,71.41
2019-05-25T01:58:57.156Z,72.24
2019-05-25T02:03:02.093Z,72.83
2019-05-25T02:07:06.971Z,73.18
2019-05-25T02:11:11.865Z,73.51
2019-05-25T02:15:16.827Z,73.84
2019-05-25T02:19:21.798Z,74.57
2019-05-25T02:23:26.694Z,75.25
2019-05-25T02:27:31.600Z,75.25
2019-05-25T02:31:36.476Z,75.35
2019-05-25T02:35:41.387Z,74.09
2019-05-25T02:39:46.280Z,74.09
2019-05-25T02:43:51.175Z,72.98
2019-05-25T02:47:56.073Z,72.98
2019-05-25T02:52:00.965Z,73.45
2019-05-25T02:56:05.934Z,73.45
2019-05-25T03:00:11.844Z,73.71
2019-05-25T03:04:17.480Z,74.09
2019-05-25T03:08:22.387Z,74.48
2019-05-25T03:12:27.618Z,74.61
2019-05-25T03:16:32.500Z,74.98
2019-05-25T03:20:37.403Z,75.13
2019-05-25T03:24:42.299Z,73.80
2019-05-25T03:28:47.197Z,72.21
2019-05-25T03:32:52.112Z,71.00
2019-05-25T03:36:56.985Z,70.97
2019-05-25T03:41:01.884Z,70.51
2019-05-25T03:45:07.866Z,70.15
2019-05-25T03:49:13.691Z,70.35
2019-05-25T03:53:18.594Z,70.44
2019-05-25T03:57:23.481Z,70.58
2019-05-25T04:01:28.449Z,70.26
2019-05-25T04:05:33.340Z,70.54
2019-05-25T04:09:38.239Z,71.42
2019-05-25T04:13:43.130Z,72.70
2019-05-25T04:17:48.021Z,73.68
2019-05-25T04:21:52.917Z,73.43
2019-05-25T04:25:57.813Z,72.19
2019-05-25T04:30:02.796Z,71.41
2019-05-25T04:34:07.757Z,70.71
2019-05-25T04:38:12.642Z,70.06
2019-05-25T04:42:17.544Z,69.21
2019-05-25T04:46:22.434Z,67.76
2019-05-25T04:50:27.339Z,67.30
2019-05-25T04:54:32.236Z,67.82
2019-05-25T04:58:37.149Z,65.36
2019-05-25T05:02:42.046Z,65.56
2019-05-25T05:06:46.980Z,63.36
2019-05-25T05:10:51.854Z,62.33
2019-05-25T05:14:56.760Z,61.46
2019-05-25T05:19:01.654Z,61.64
2019-05-25T05:23:06.554Z,60.00
2019-05-25T05:27:11.457Z,58.18
2019-05-25T05:31:23.580Z,52.24
2019-05-25T05:35:22.941Z,51.96
2019-05-25T05:39:28.379Z,49.81
2019-05-25T05:43:34.717Z,49.50
2019-05-25T05:47:41.270Z,50.63
2019-05-25T05:51:50.508Z,49.38
2019-05-25T05:55:55.407Z,49.16
2019-05-25T06:00:00.297Z,47.82
2019-05-25T06:04:05.261Z,45.30
2019-05-25T06:08:10.161Z,45.89
2019-05-25T06:12:15.055Z,47.03
2019-05-25T06:16:19.948Z,46.05
2019-05-25T06:20:24.845Z,44.17
2019-05-25T06:24:29.750Z,39.82
2019-05-25T06:28:34.655Z,38.69
2019-05-25T06:32:39.563Z,39.05
2019-05-25T06:36:44.460Z,34.82
2019-05-25T06:40:49.356Z,32.64
2019-05-25T06:44:54.257Z,30.63
2019-05-25T06:48:59.158Z,29.18
2019-05-25T06:53:04.055Z,29.40
2019-05-25T06:57:08.934Z,28.58
2019-05-25T07:01:13.857Z,28.58
2019-05-25T07:05:18.756Z,27.91
2019-05-25T07:09:23.659Z,28.31
2019-05-25T07:13:28.799Z,31.92
2019-05-25T07:17:33.727Z,35.20
2019-05-25T07:21:38.634Z,37.41
2019-05-25T07:25:43.533Z,39.37
2019-05-25T07:29:48.438Z,39.29
2019-05-25T07:33:53.327Z,39.89
2019-05-25T07:37:58.224Z,40.65
2019-05-25T07:42:03.294Z,40.40
2019-05-25T07:46:08.166Z,40.10
2019-05-25T07:50:13.908Z,40.04
2019-05-25T07:54:18.812Z,40.78
2019-05-25T07:58:23.705Z,41.31
2019-05-25T08:02:28.610Z,41.16
2019-05-25T08:06:33.521Z,40.90
2019-05-25T08:10:38.414Z,41.17
2019-05-25T08:14:45.150Z,39.31
2019-05-25T08:18:50.084Z,39.50
2019-05-25T08:22:54.982Z,39.85
2019-05-25T08:26:59.949Z,40.32
2019-05-25T08:31:04.923Z,40.71
2019-05-25T08:35:10.461Z,39.91
2019-05-25T08:39:15.335Z,40.01
2019-05-25T08:43:20.241Z,40.86
2019-05-25T08:47:25.143Z,40.01
2019-05-25T08:51:30.038Z,40.74
2019-05-25T08:55:35.512Z,38.93
2019-05-25T08:59:40.407Z,37.05
2019-05-25T09:03:45.295Z,36.70
2019-05-25T09:07:50.211Z,38.71
2019-05-25T09:11:55.113Z,36.55
2019-05-25T09:16:00.014Z,36.24
2019-05-25T09:20:08.481Z,37.04
2019-05-25T09:24:13.385Z,37.13
2019-05-25T09:28:18.315Z,33.82
2019-05-25T09:32:24.266Z,34.15
2019-05-25T09:36:30.144Z,35.15
2019-05-25T09:40:35.023Z,35.07
2019-05-25T09:44:39.924Z,34.80
2019-05-25T09:48:44.826Z,35.07
2019-05-25T09:52:49.731Z,34.95
2019-05-25T09:56:54.631Z,36.23
2019-05-25T10:00:59.538Z,34.54
2019-05-25T10:05:06.393Z,37.97
2019-05-25T10:09:11.285Z,37.15
2019-05-25T10:13:16.186Z,34.61
2019-05-25T10:17:21.100Z,37.16
2019-05-25T10:21:25.989Z,37.20
2019-05-25T10:25:30.887Z,35.43
2019-05-25T10:29:37.593Z,35.24
2019-05-25T10:33:42.430Z,33.23
2019-05-25T10:37:47.322Z,33.95
2019-05-25T10:41:52.222Z,32.70
2019-05-25T10:45:57.119Z,33.03
2019-05-25T10:50:02.097Z,34.64
2019-05-25T10:54:06.989Z,36.11
2019-05-25T10:58:11.897Z,34.83
2019-05-25T11:02:16.788Z,34.69
2019-05-25T11:06:21.689Z,34.56
2019-05-25T11:10:26.592Z,34.31
2019-05-25T11:14:31.504Z,33.35
2019-05-25T11:18:36.405Z,34.55
2019-05-25T11:22:41.306Z,36.25
2019-05-25T11:26:46.197Z,34.92
2019-05-25T11:30:51.103Z,35.60
2019-05-25T11:34:56.006Z,35.79
2019-05-25T11:39:00.909Z,34.31
2019-05-25T11:43:05.967Z,34.96
2019-05-25T11:47:11.938Z,33.99
2019-05-25T11:51:16.847Z,35.16
2019-05-25T11:55:21.815Z,34.30
2019-05-25T11:59:26.712Z,35.97
2019-05-25T12:03:31.604Z,34.67
2019-05-25T12:07:36.576Z,35.46
2019-05-25T12:11:41.470Z,35.61
2019-05-25T12:15:46.361Z,36.73
2019-05-25T12:19:51.262Z,34.04
2019-05-25T12:23:56.169Z,35.26
2019-05-25T12:28:01.065Z,36.29
2019-05-25T12:32:06.024Z,36.19
2019-05-25T12:36:12.066Z,35.96
2019-05-25T12:40:17.038Z,37.29
2019-05-25T12:44:21.921Z,37.00
2019-05-25T12:48:26.838Z,35.95
2019-05-25T12:52:31.734Z,34.71
2019-05-25T12:56:36.722Z,35.81
2019-05-25T13:00:55.161Z,35.62
2019-05-25T13:04:48.182Z,34.86
2019-05-25T13:08:53.840Z,36.39
2019-05-25T13:13:01.916Z,35.25
2019-05-25T13:17:05.400Z,36.02
2019-05-25T13:21:10.295Z,35.26
2019-05-25T13:25:15.435Z,34.63
2019-05-25T13:29:20.337Z,34.99
2019-05-25T13:33:25.234Z,32.93
2019-05-25T13:37:30.128Z,32.42
2019-05-25T13:41:35.101Z,32.34
2019-05-25T13:45:39.989Z,32.26
2019-05-25T13:49:44.895Z,32.03
2019-05-25T13:53:49.794Z,32.16
2019-05-25T13:57:54.694Z,32.70
2019-05-25T14:01:59.601Z,32.35
2019-05-25T14:06:04.557Z,32.08
2019-05-25T14:10:09.530Z,34.64
2019-05-25T14:14:14.468Z,34.63
2019-05-25T14:18:19.362Z,34.06
2019-05-25T14:22:24.254Z,33.77
2019-05-25T14:26:29.155Z,33.60
2019-05-25T14:30:34.052Z,34.30
2019-05-25T14:34:38.954Z,33.50
2019-05-25T14:38:43.860Z,33.73
2019-05-25T14:42:48.754Z,33.99
2019-05-25T14:46:53.652Z,34.92
2019-05-25T14:50:58.555Z,35.40
2019-05-25T14:55:05.333Z,34.81
2019-05-25T14:59:10.231Z,35.58
2019-05-25T15:03:15.123Z,33.82
2019-05-25T15:07:20.022Z,35.00
2019-05-25T15:11:24.926Z,35.55
2019-05-25T15:15:29.900Z,35.64
2019-05-25T15:19:34.813Z,35.40
2019-05-25T15:23:39.711Z,35.15
2019-05-25T15:27:44.624Z,35.52
2019-05-25T15:31:49.518Z,35.78
2019-05-25T15:35:54.431Z,35.12
2019-05-25T15:39:59.340Z,35.85
2019-05-25T15:44:04.497Z,35.36
2019-05-25T15:48:09.398Z,35.50
2019-05-25T15:52:14.302Z,35.51
2019-05-25T15:56:19.203Z,35.63
2019-05-25T16:00:30.132Z,35.86
2019-05-25T16:04:35.727Z,35.70
2019-05-25T16:08:40.809Z,35.13
2019-05-25T16:12:45.714Z,35.48
2019-05-25T16:16:50.619Z,35.22
2019-05-25T16:20:55.520Z,35.56
2019-05-25T16:25:00.412Z,35.62
2019-05-25T16:29:05.330Z,35.30
2019-05-25T16:33:13.098Z,35.31
2019-05-25T16:37:17.117Z,35.45
2019-05-25T16:41:22.114Z,35.27
2019-05-25T16:45:27.006Z,35.47
2019-05-25T16:49:31.917Z,35.30
2019-05-25T16:53:36.826Z,35.52
2019-05-25T16:57:41.723Z,35.74
2019-05-25T17:01:48.494Z,35.52
2019-05-25T17:05:53.220Z,35.83
2019-05-25T17:09:58.133Z,35.40
2019-05-25T17:14:04.086Z,35.73
2019-05-25T17:18:09.059Z,35.76
2019-05-25T17:22:13.968Z,35.43
2019-05-25T17:26:18.866Z,40.00
2019-05-25T17:30:44.482Z,42.41
2019-05-25T17:34:49.383Z,43.81
2019-05-25T17:38:54.298Z,45.19
2019-05-25T17:42:59.194Z,46.93
2019-05-25T17:47:04.093Z,47.76
2019-05-25T17:51:08.993Z,48.11
2019-05-25T17:55:14.502Z,48.55
2019-05-25T17:59:19.408Z,48.62
2019-05-25T18:03:24.320Z,49.79
2019-05-25T18:07:29.202Z,49.49
2019-05-25T18:11:34.109Z,50.01
2019-05-25T18:15:39.013Z,50.41
2019-05-25T18:19:43.920Z,51.33
2019-05-25T18:23:48.819Z,51.02
2019-05-25T18:27:53.716Z,50.80
2019-05-25T18:31:58.613Z,51.27
2019-05-25T18:36:03.517Z,51.58
2019-05-25T18:40:09.666Z,52.18
2019-05-25T18:44:14.559Z,51.78
2019-05-25T18:48:19.463Z,52.34
2019-05-25T18:52:24.354Z,53.03
2019-05-25T18:56:29.255Z,53.12
2019-05-25T19:00:34.160Z,52.90
2019-05-25T19:04:46.137Z,52.73
2019-05-25T19:08:45.690Z,52.44
2019-05-25T19:12:50.573Z,52.75
2019-05-25T19:16:55.473Z,53.01
2019-05-25T19:21:00.369Z,53.33
2019-05-25T19:25:08.456Z,53.87
2019-05-25T19:29:13.366Z,54.10
2019-05-25T19:33:18.238Z,54.97
2019-05-25T19:37:23.139Z,55.67
2019-05-25T19:41:28.039Z,55.41
2019-05-25T19:45:34.009Z,55.87
2019-05-25T19:49:38.899Z,56.83
2019-05-25T19:53:43.808Z,56.90
2019-05-25T19:57:48.712Z,57.13
2019-05-25T20:01:53.604Z,57.00
2019-05-25T20:05:58.499Z,55.60
2019-05-25T20:10:04.866Z,55.22
2019-05-25T20:14:09.765Z,54.61
2019-05-25T20:18:15.628Z,53.99
2019-05-25T20:22:21.006Z,53.85
2019-05-25T20:26:25.896Z,54.27
2019-05-25T20:30:30.859Z,55.00
2019-05-25T20:34:35.684Z,55.50
2019-05-25T20:38:40.584Z,56.00
2019-05-25T20:42:45.482Z,56.84
2019-05-25T20:46:50.378Z,57.61
2019-05-25T20:50:55.262Z,58.27
2019-05-25T20:55:00.161Z,58.31
2019-05-25T20:59:05.055Z,58.40
2019-05-25T21:03:09.955Z,59.09
2019-05-25T21:07:14.860Z,59.83
2019-05-25T21:11:19.739Z,59.43
2019-05-25T21:15:24.641Z,59.27
2019-05-25T21:19:29.539Z,59.40
2019-05-25T21:23:34.435Z,59.51
2019-05-25T21:27:39.329Z,59.04
2019-05-25T21:31:44.215Z,59.65
2019-05-25T21:36:06.429Z,60.50
2019-05-25T21:39:55.706Z,61.28
2019-05-25T21:44:00.613Z,62.26
2019-05-25T21:48:05.869Z,62.66
2019-05-25T21:52:10.751Z,62.95
2019-05-25T21:56:15.642Z,63.11
2019-05-25T22:00:22.817Z,63.92
2019-05-25T22:04:29.313Z,64.44
2019-05-25T22:08:34.209Z,64.96
2019-05-25T22:12:40.374Z,65.36
2019-05-25T22:16:46.543Z,65.49
2019-05-25T22:20:51.447Z,66.06
2019-05-25T22:24:56.340Z,65.80
2019-05-25T22:29:01.248Z,67.70
2019-05-25T22:33:06.143Z,67.70
2019-05-25T22:37:11.034Z,68.25
2019-05-25T22:41:19.689Z,68.60
2019-05-25T22:45:22.536Z,70.01
2019-05-25T22:49:27.437Z,71.38
2019-05-25T22:53:32.336Z,72.07
2019-05-25T22:57:38.286Z,72.17
2019-05-25T23:01:43.180Z,72.67
2019-05-25T23:05:48.070Z,72.73
2019-05-25T23:09:52.984Z,72.72
2019-05-25T23:13:57.870Z,72.88
2019-05-25T23:18:02.761Z,72.81
2019-05-25T23:22:07.657Z,72.05
2019-05-25T23:26:12.553Z,71.51
2019-05-25T23:30:18.787Z,72.20
2019-05-25T23:34:23.741Z,73.29
2019-05-25T23:38:28.708Z,73.15
2019-05-25T23:42:33.609Z,73.49
2019-05-25T23:46:38.504Z,73.78
2019-05-25T23:50:43.410Z,73.72
2019-05-25T23:54:48.308Z,72.93
2019-05-25T23:58:53.202Z,73.09
